Search flights

Tribhuvan Intl Airport, Kathmandu (VNKT)

Airport Weather & NOTAM's

METAR for:VNKT (Kathmandu/Tribhuvan Intl, BA, NP)
Text:VNKT 160500Z VRB02KT 7000 FEW010 SCT030 BKN100 28/20 Q1011 NOSIG
Conditions at:0500 UTC 16 Jun 2024
Temperature: 28.0°C ( 82°F)
Dewpoint: 20.0°C ( 68°F) [RH = 62%]
Pressure (altimeter):29.85 inches Hg (1011.0 mb)
Winds:variable direction winds at 2 MPH (2 knots; 1.0 m/s)
Visibility:4 sm (7 km)
Ceiling:10000 feet AGL
Clouds:few clouds at 1000 feet AGL, scattered clouds at 3000 feet AGL, broken clouds at 10000 feet AGL

Live Departures & Arrivals

There are currently no arrivals or departures for this airport.

Departures History (last 12 months)

Flight No. Dest. Aircraft Date
SIC0103 VQPR King Air 3... 2024-06-09 13:31:34
SIC0968 VCBI B737-800 2024-03-12 09:00:00

Arrivals History (last 12 months)

Flight No. Origin Aircraft Date
SIC0968 VTBD B737-800 2024-03-11 20:20:00

Runway Information (Airport elevation: 4,395ft)

Runway 02 Length 10,002ft Width 146ft Elevation 4,358ft Surface Asphalt Heading 22
Runway 20 Length 10,002ft Width 146ft Elevation 4,358ft Surface Asphalt Heading 202

Airport Frequencies

Type APP/DEP Frequency 120.600 Mhz
Type APP/DEP Frequency 125.100 Mhz
Type ATIS Frequency 127.000 Mhz
Type Ground Frequency 121.900 Mhz
Type Tower Frequency 118.100 Mhz
Type Tower Frequency 118.500 Mhz

Airport Navaids

Type NDB Ident KAM Frequency 318 Khz
Type VOR-DME Ident KTM Frequency 112300 Khz
Type NDB Ident LNC Frequency 252 Khz